This is the latest recevied weather packets stored in our database for station/object DG8SBT-10. If no packets are shown the sender has not sent any weather packets the latest 10 day(s).
| Time | Temp. | Humidity | Pressure | Rain* | Wind** | Luminosity | Snow |
|---|---|---|---|---|---|---|---|
| 1788239036 | 20.56° C | 55% | 1023.5 hPa | - | - | - | - |
| 1788238136 | 20.56° C | 53% | 1023.5 hPa | - | - | - | - |
| 1788237235 | 21.11° C | 52% | 1023.5 hPa | - | - | - | - |
| 1788214731 | 22.78° C | 48% | 1022.3 hPa | - | - | - | - |
| 1788213831 | 22.22° C | 48% | 1022.2 hPa | - | - | - | - |
| 1788212931 | 22.78° C | 47% | 1022.2 hPa | - | - | - | - |
| 1788212031 | 22.78° C | 48% | 1022.1 hPa | - | - | - | - |
| 1788211131 | 22.78° C | 47% | 1022 hPa | - | - | - | - |
| 1788210231 | 22.78° C | 47% | 1021.9 hPa | - | - | - | - |
| 1788209330 | 23.33° C | 46% | 1021.8 hPa | - | - | - | - |
| 1788208430 | 22.78° C | 48% | 1021.6 hPa | - | - | - | - |
| 1788207530 | 23.33° C | 47% | 1021.5 hPa | - | - | - | - |
| 1788206630 | 23.89° C | 45% | 1021.5 hPa | - | - | - | - |
| 1788205730 | 24.44° C | 45% | 1021.3 hPa | - | - | - | - |
| 1788204830 | 23.89° C | 46% | 1021.3 hPa | - | - | - | - |
| 1788203930 | 25° C | 46% | 1021.1 hPa | - | - | - | - |
| 1788203030 | 24.44° C | 47% | 1021 hPa | - | - | - | - |
| 1788202130 | 24.44° C | 49% | 1020.9 hPa | - | - | - | - |
| 1788201229 | 24.44° C | 47% | 1020.8 hPa | - | - | - | - |
| 1788200329 | 24.44° C | 49% | 1020.5 hPa | - | - | - | - |
| 1788199429 | 25° C | 47% | 1020.2 hPa | - | - | - | - |
| 1788198529 | 26.11° C | 43% | 1020.3 hPa | - | - | - | - |
| 1788197629 | 26.67° C | 41% | 1020.2 hPa | - | - | - | - |
| 1788196729 | 26.11° C | 41% | 1019.9 hPa | - | - | - | - |
| 1788195829 | 26.67° C | 39% | 1019.6 hPa | - | - | - | - |
* Rain since midnight (hover to see other rain measurements)
** Current wind speed in m/s (hover to see current wind gust speed)